createdAt,value
2024-05-09T00:00:05.016Z,20
2024-05-09T00:02:34.643Z,20
2024-05-09T00:05:05.728Z,20
2024-05-09T00:07:36.566Z,20
2024-05-09T00:10:11.647Z,20
2024-05-09T00:12:38.319Z,20
2024-05-09T00:15:08.778Z,20
2024-05-09T00:17:39.773Z,20
2024-05-09T00:20:14.164Z,20
2024-05-09T00:22:40.751Z,20
2024-05-09T00:25:11.103Z,20
2024-05-09T00:27:41.605Z,20
2024-05-09T00:30:14.654Z,20
2024-05-09T00:32:43.145Z,20
2024-05-09T00:35:13.879Z,20
2024-05-09T00:37:44.326Z,20
2024-05-09T00:40:18.727Z,20
2024-05-09T00:42:45.312Z,20
2024-05-09T00:45:16.300Z,19
2024-05-09T00:47:47.244Z,20
2024-05-09T00:50:22.442Z,18
2024-05-09T00:52:47.963Z,16
2024-05-09T00:55:18.257Z,20
2024-05-09T00:57:48.820Z,16
2024-05-09T01:00:26.183Z,16
2024-05-09T01:02:50.373Z,18
2024-05-09T01:05:20.532Z,18
2024-05-09T01:07:51.273Z,16
2024-05-09T01:10:24.180Z,19
2024-05-09T01:12:52.358Z,16
2024-05-09T01:15:23.637Z,16
2024-05-09T01:17:54.580Z,17
2024-05-09T01:20:31.582Z,18
2024-05-09T01:22:56.700Z,20
2024-05-09T01:25:28.075Z,14
2024-05-09T01:27:58.710Z,16
2024-05-09T01:30:33.425Z,16
2024-05-09T01:33:00.014Z,16
2024-05-09T01:35:30.844Z,16
2024-05-09T01:38:01.561Z,19
2024-05-09T01:40:36.536Z,16
2024-05-09T01:43:03.139Z,20
2024-05-09T01:45:34.768Z,17
2024-05-09T01:48:05.669Z,20
2024-05-09T01:50:38.931Z,16
2024-05-09T01:53:08.287Z,20
2024-05-09T01:55:39.235Z,19
2024-05-09T01:58:09.172Z,20
2024-05-09T02:00:41.447Z,17
2024-05-09T02:03:11.497Z,17
2024-05-09T02:05:41.308Z,16
2024-05-09T02:08:12.261Z,19
2024-05-09T02:10:42.791Z,18
2024-05-09T02:13:13.814Z,16
2024-05-09T02:15:44.833Z,16
2024-05-09T02:18:15.852Z,20
2024-05-09T02:20:46.175Z,14
2024-05-09T02:23:17.279Z,16
2024-05-09T02:25:47.996Z,16
2024-05-09T02:28:18.481Z,15
2024-05-09T02:30:48.661Z,16
2024-05-09T02:33:19.107Z,14
2024-05-09T02:35:49.813Z,12
2024-05-09T02:38:20.205Z,12
2024-05-09T02:40:50.802Z,12
2024-05-09T02:43:21.637Z,12
2024-05-09T02:45:52.174Z,11
2024-05-09T02:48:22.651Z,12
2024-05-09T02:50:52.934Z,11
2024-05-09T02:53:23.316Z,12
2024-05-09T02:55:53.761Z,12
2024-05-09T02:58:24.350Z,12
2024-05-09T03:00:55.234Z,12
2024-05-09T03:03:25.966Z,12
2024-05-09T03:05:55.666Z,16
2024-05-09T03:08:26.363Z,12
2024-05-09T03:10:56.632Z,12
2024-05-09T03:13:26.782Z,12
2024-05-09T03:15:56.951Z,12
2024-05-09T03:18:27.127Z,12
2024-05-09T03:20:57.571Z,11
2024-05-09T03:23:27.952Z,8
2024-05-09T03:25:57.938Z,8
2024-05-09T03:28:28.413Z,8
2024-05-09T03:30:58.884Z,8
2024-05-09T03:33:28.839Z,8
2024-05-09T03:35:59.194Z,8
2024-05-09T03:38:29.288Z,5
2024-05-09T03:40:59.460Z,8
2024-05-09T03:43:29.494Z,4
2024-05-09T03:45:59.543Z,8
2024-05-09T03:48:29.621Z,4
2024-05-09T03:51:00.140Z,4
2024-05-09T03:53:30.718Z,8
2024-05-09T03:56:00.926Z,5
2024-05-09T03:58:31.435Z,7
2024-05-09T04:01:01.556Z,4
2024-05-09T04:03:32.058Z,4
2024-05-09T04:06:02.312Z,4
2024-05-09T04:08:32.978Z,6
2024-05-09T04:11:03.445Z,4
2024-05-09T04:13:34.117Z,8
2024-05-09T04:16:04.433Z,5
2024-05-09T04:18:35.307Z,4
2024-05-09T04:21:06.289Z,4
2024-05-09T04:23:37.066Z,8
2024-05-09T04:26:07.462Z,8
2024-05-09T04:28:38.167Z,8
2024-05-09T04:31:09.033Z,8
2024-05-09T04:33:39.924Z,6
2024-05-09T04:36:10.522Z,4
2024-05-09T04:38:41.208Z,6
2024-05-09T04:41:11.765Z,4
2024-05-09T04:43:41.945Z,4
2024-05-09T04:46:12.341Z,5
2024-05-09T04:48:43.108Z,4
2024-05-09T04:51:13.217Z,8
2024-05-09T04:53:43.916Z,8
2024-05-09T04:56:14.235Z,8
2024-05-09T04:58:44.176Z,8
2024-05-09T05:01:14.413Z,8
2024-05-09T05:03:45.818Z,8
2024-05-09T05:06:16.135Z,8
2024-05-09T05:08:46.752Z,8
2024-05-09T05:11:17.463Z,8
2024-05-09T05:13:47.789Z,8
2024-05-09T05:16:18.319Z,8
2024-05-09T05:18:48.890Z,8
2024-05-09T05:21:18.990Z,11
2024-05-09T05:23:49.310Z,9
2024-05-09T05:26:19.975Z,8
2024-05-09T05:28:50.553Z,8
2024-05-09T05:31:21.062Z,12
2024-05-09T05:33:51.397Z,8
2024-05-09T05:36:21.937Z,8
2024-05-09T05:38:52.879Z,8
2024-05-09T05:41:23.034Z,8
2024-05-09T05:43:53.489Z,9
2024-05-09T05:46:24.123Z,8
2024-05-09T05:48:54.670Z,8
2024-05-09T05:51:25.113Z,8
2024-05-09T05:53:55.777Z,8
2024-05-09T05:56:26.065Z,8
2024-05-09T05:58:56.900Z,8
2024-05-09T06:01:27.293Z,12
2024-05-09T06:03:57.315Z,8
2024-05-09T06:06:27.727Z,11
2024-05-09T06:08:58.788Z,8
2024-05-09T06:11:30.918Z,14
2024-05-09T06:14:02.084Z,44
2024-05-09T06:16:32.586Z,12
2024-05-09T06:19:03.179Z,12
2024-05-09T06:21:33.779Z,12
2024-05-09T06:24:06.185Z,8
2024-05-09T06:26:35.617Z,8
2024-05-09T06:29:06.545Z,16
2024-05-09T06:31:36.884Z,8
2024-05-09T06:34:07.076Z,8
2024-05-09T06:36:37.442Z,4
2024-05-09T06:39:07.955Z,8
2024-05-09T06:41:38.148Z,8
2024-05-09T06:44:08.858Z,8
2024-05-09T06:46:39.276Z,8
2024-05-09T06:49:09.516Z,8
2024-05-09T06:51:40.008Z,4
2024-05-09T06:54:11.030Z,8
2024-05-09T06:56:41.856Z,8
2024-05-09T06:59:12.455Z,8
2024-05-09T07:01:42.533Z,9
2024-05-09T07:04:13.000Z,8
2024-05-09T07:06:43.570Z,8
2024-05-09T07:09:13.959Z,7
2024-05-09T07:11:44.343Z,8
2024-05-09T07:14:14.460Z,8
2024-05-09T07:16:44.978Z,8
2024-05-09T07:19:15.263Z,8
2024-05-09T07:21:45.261Z,8
2024-05-09T07:24:15.858Z,8
2024-05-09T07:26:47.460Z,8
2024-05-09T07:29:17.841Z,9
2024-05-09T07:31:48.453Z,8
2024-05-09T07:34:19.021Z,8
2024-05-09T07:36:49.728Z,8
2024-05-09T07:39:19.999Z,8
2024-05-09T07:41:50.838Z,12
2024-05-09T07:44:21.182Z,12
2024-05-09T07:47:20.706Z,8
2024-05-09T07:52:49.219Z,8
2024-05-09T07:54:22.414Z,15
2024-05-09T07:56:56.472Z,8
2024-05-09T07:59:26.674Z,19
2024-05-09T08:01:57.172Z,13
2024-05-09T08:04:27.801Z,20
2024-05-09T08:06:57.888Z,20
2024-05-09T08:09:28.417Z,24
2024-05-09T08:11:59.128Z,11
2024-05-09T08:14:29.258Z,9
2024-05-09T08:16:59.478Z,11
2024-05-09T08:19:29.633Z,8
2024-05-09T08:22:00.006Z,7
2024-05-09T08:24:30.039Z,4
2024-05-09T08:27:00.071Z,4
2024-05-09T08:29:30.286Z,4
2024-05-09T08:32:00.705Z,4
2024-05-09T08:34:31.046Z,4
2024-05-09T08:37:06.039Z,2
2024-05-09T08:39:32.255Z,5
2024-05-09T08:42:02.364Z,0
2024-05-09T08:44:32.940Z,4
2024-05-09T08:47:03.732Z,4
2024-05-09T08:49:34.149Z,4
2024-05-09T08:52:04.430Z,4
2024-05-09T08:54:35.443Z,4
2024-05-09T08:57:05.528Z,4
2024-05-09T08:59:36.202Z,4
2024-05-09T09:02:06.610Z,4
2024-05-09T09:04:36.744Z,4
2024-05-09T09:07:06.884Z,4
2024-05-09T09:09:37.158Z,8
2024-05-09T09:12:08.635Z,4
2024-05-09T09:14:37.759Z,4
2024-05-09T09:17:07.891Z,4
2024-05-09T09:19:38.005Z,4
2024-05-09T09:22:08.172Z,4
2024-05-09T09:24:38.467Z,4
2024-05-09T09:27:08.524Z,8
2024-05-09T09:29:38.636Z,4
2024-05-09T09:32:09.161Z,4
2024-05-09T09:34:39.535Z,4
2024-05-09T09:37:10.173Z,4
2024-05-09T09:39:40.344Z,4
2024-05-09T09:42:10.407Z,4
2024-05-09T09:44:42.243Z,4
2024-05-09T09:47:11.133Z,4
2024-05-09T09:49:41.949Z,4
2024-05-09T09:52:12.757Z,4
2024-05-09T09:54:43.530Z,4
2024-05-09T09:57:18.024Z,0
2024-05-09T09:59:48.957Z,4
2024-05-09T10:02:19.426Z,0
2024-05-09T10:04:49.729Z,0
2024-05-09T10:07:19.627Z,0
2024-05-09T10:09:48.519Z,4
2024-05-09T10:12:19.073Z,4
2024-05-09T10:14:49.083Z,4
2024-05-09T10:17:19.371Z,4
2024-05-09T10:19:49.886Z,4
2024-05-09T10:22:20.550Z,0
2024-05-09T10:24:51.425Z,4
2024-05-09T10:27:21.949Z,4
2024-05-09T10:29:52.437Z,4
2024-05-09T10:32:23.346Z,4
2024-05-09T10:34:54.271Z,4
2024-05-09T10:37:24.634Z,4
2024-05-09T10:39:55.521Z,4
2024-05-09T10:42:25.822Z,4
2024-05-09T10:44:56.717Z,4
2024-05-09T10:47:27.101Z,2
2024-05-09T10:49:57.336Z,4
2024-05-09T10:52:27.746Z,1
2024-05-09T10:54:59.947Z,4
2024-05-09T10:57:29.442Z,7
2024-05-09T11:02:30.994Z,4
2024-05-09T11:05:01.226Z,4
2024-05-09T11:07:31.662Z,4
2024-05-09T11:10:04.972Z,4
2024-05-09T11:12:35.289Z,1
2024-05-09T11:15:05.584Z,4
2024-05-09T11:17:36.103Z,4
2024-05-09T11:20:10.754Z,4
2024-05-09T11:22:37.364Z,4
2024-05-09T11:25:08.134Z,4
2024-05-09T11:27:39.458Z,4
2024-05-09T11:30:14.135Z,4
2024-05-09T11:32:40.086Z,1
2024-05-09T11:35:10.337Z,0
2024-05-09T11:37:40.646Z,4
2024-05-09T11:40:13.683Z,4
2024-05-09T11:42:41.113Z,4
2024-05-09T11:45:11.273Z,4
2024-05-09T11:47:42.057Z,4
2024-05-09T11:50:16.307Z,8
2024-05-09T11:52:43.802Z,12
2024-05-09T11:55:14.192Z,4
2024-05-09T11:57:44.558Z,8
2024-05-09T12:00:20.660Z,8
2024-05-09T12:02:46.621Z,8
2024-05-09T12:05:18.073Z,8
2024-05-09T12:07:47.955Z,8
2024-05-09T12:10:19.779Z,8
2024-05-09T12:12:49.010Z,8
2024-05-09T12:15:19.030Z,9
2024-05-09T12:17:50.653Z,9
2024-05-09T12:20:25.528Z,8
2024-05-09T12:22:50.560Z,8
2024-05-09T12:25:20.887Z,8
2024-05-09T12:27:51.223Z,8
2024-05-09T12:30:28.676Z,8
2024-05-09T12:32:51.953Z,8
2024-05-09T12:35:22.772Z,8
2024-05-09T12:37:52.935Z,8
2024-05-09T12:40:31.068Z,8
2024-05-09T12:42:54.231Z,8
2024-05-09T12:45:24.568Z,8
2024-05-09T12:47:54.899Z,8
2024-05-09T12:50:29.839Z,8
2024-05-09T12:52:55.445Z,8
2024-05-09T12:55:26.366Z,8
2024-05-09T12:57:56.057Z,7
2024-05-09T13:00:27.951Z,8
2024-05-09T13:02:54.868Z,12
2024-05-09T13:05:24.963Z,8
2024-05-09T13:07:54.931Z,8
2024-05-09T13:10:29.326Z,8
2024-05-09T13:12:55.998Z,8
2024-05-09T13:15:26.102Z,8
2024-05-09T13:17:58.042Z,8
2024-05-09T13:20:31.097Z,7
2024-05-09T13:22:56.753Z,8
2024-05-09T13:25:27.082Z,7
2024-05-09T13:27:57.451Z,6
2024-05-09T13:30:30.129Z,8
2024-05-09T13:32:57.738Z,8
2024-05-09T13:35:27.700Z,4
2024-05-09T13:37:58.246Z,8
2024-05-09T13:40:32.533Z,8
2024-05-09T13:42:58.939Z,8
2024-05-09T13:45:29.311Z,4
2024-05-09T13:47:59.662Z,8
2024-05-09T13:50:32.788Z,20
2024-05-09T13:52:59.803Z,13
2024-05-09T13:55:29.669Z,17
2024-05-09T13:58:00.091Z,16
2024-05-09T14:00:37.556Z,8
2024-05-09T14:03:00.756Z,8
2024-05-09T14:05:31.078Z,11
2024-05-09T14:08:01.231Z,11
2024-05-09T14:10:32.496Z,31
2024-05-09T14:13:01.322Z,40
2024-05-09T14:15:31.371Z,12
2024-05-09T14:18:01.765Z,12
2024-05-09T14:20:32.491Z,20
2024-05-09T14:23:02.239Z,11
2024-05-09T14:25:33.073Z,8
2024-05-09T14:28:02.901Z,16
2024-05-09T14:30:35.984Z,8
2024-05-09T14:33:03.446Z,8
2024-05-09T14:35:33.454Z,16
2024-05-09T14:38:03.602Z,20
2024-05-09T14:40:39.130Z,8
2024-05-09T14:43:04.497Z,8
2024-05-09T14:45:34.814Z,48
2024-05-09T14:48:04.944Z,12
2024-05-09T14:50:36.584Z,12
2024-05-09T14:53:06.645Z,20
2024-05-09T14:55:37.861Z,12
2024-05-09T14:58:07.538Z,20
2024-05-09T15:00:38.562Z,8
2024-05-09T15:03:08.096Z,16
2024-05-09T15:05:38.262Z,12
2024-05-09T15:08:08.650Z,8
2024-05-09T15:10:39.203Z,8
2024-05-09T15:13:10.382Z,8
2024-05-09T15:15:40.222Z,8
2024-05-09T15:18:11.457Z,8
2024-05-09T15:20:41.834Z,8
2024-05-09T15:23:11.563Z,10
2024-05-09T15:25:41.967Z,12
2024-05-09T15:28:12.551Z,8
2024-05-09T15:30:45.183Z,8
2024-05-09T15:33:12.517Z,8
2024-05-09T15:35:42.790Z,12
2024-05-09T15:38:13.198Z,8
2024-05-09T15:40:43.462Z,8
2024-05-09T15:43:13.759Z,8
2024-05-09T15:45:44.048Z,16
2024-05-09T15:48:14.303Z,8
2024-05-09T15:50:44.612Z,8
2024-05-09T15:53:14.643Z,8
2024-05-09T15:55:44.757Z,12
2024-05-09T15:58:14.963Z,25
2024-05-09T16:00:46.267Z,20
2024-05-09T16:03:16.439Z,17
2024-05-09T16:05:47.114Z,12
2024-05-09T16:08:16.686Z,24
2024-05-09T16:10:47.223Z,16
2024-05-09T16:13:17.497Z,12
2024-05-09T16:15:47.112Z,13
2024-05-09T16:18:17.199Z,16
2024-05-09T16:20:49.241Z,16
2024-05-09T16:23:17.752Z,12
2024-05-09T16:25:48.455Z,8
2024-05-09T16:28:18.071Z,12
2024-05-09T16:30:48.307Z,19
2024-05-09T16:33:18.698Z,21
2024-05-09T16:35:48.648Z,8
2024-05-09T16:38:18.991Z,8
2024-05-09T16:40:49.780Z,8
2024-05-09T16:43:20.604Z,10
2024-05-09T16:45:51.137Z,12
2024-05-09T16:48:21.622Z,5
2024-05-09T16:50:52.244Z,4
2024-05-09T16:53:22.719Z,4
2024-05-09T16:55:52.636Z,4
2024-05-09T16:58:23.293Z,4
2024-05-09T17:00:53.810Z,4
2024-05-09T17:03:24.055Z,4
2024-05-09T17:05:54.736Z,4
2024-05-09T17:08:24.948Z,8
2024-05-09T17:10:55.198Z,4
2024-05-09T17:13:25.349Z,4
2024-05-09T17:15:55.591Z,4
2024-05-09T17:18:26.478Z,8
2024-05-09T17:20:57.122Z,8
2024-05-09T17:23:28.074Z,4
2024-05-09T17:25:57.566Z,4
2024-05-09T17:28:28.359Z,4
2024-05-09T17:30:59.505Z,4
2024-05-09T17:33:29.854Z,4
2024-05-09T17:35:59.469Z,4
2024-05-09T17:38:29.554Z,4
2024-05-09T17:41:00.027Z,6
2024-05-09T17:43:30.576Z,11
2024-05-09T17:46:00.556Z,8
2024-05-09T17:48:30.743Z,4
2024-05-09T17:51:01.395Z,4
2024-05-09T17:53:31.770Z,8
2024-05-09T17:56:01.670Z,12
2024-05-09T17:58:32.228Z,8
2024-05-09T18:01:02.580Z,7
2024-05-09T18:03:33.141Z,16
2024-05-09T18:06:03.363Z,6
2024-05-09T18:08:33.541Z,4
2024-05-09T18:11:03.657Z,4
2024-05-09T18:13:34.011Z,4
2024-05-09T18:16:04.009Z,12
2024-05-09T18:18:34.236Z,8
2024-05-09T18:21:04.408Z,12
2024-05-09T18:23:34.581Z,8
2024-05-09T18:26:05.027Z,8
2024-05-09T18:28:34.878Z,4
2024-05-09T18:31:04.728Z,4
2024-05-09T18:33:35.623Z,4
2024-05-09T18:36:06.141Z,4
2024-05-09T18:38:36.696Z,4
2024-05-09T18:41:07.189Z,4
2024-05-09T18:43:41.774Z,4
2024-05-09T18:46:07.981Z,11
2024-05-09T18:48:38.470Z,8
2024-05-09T18:51:08.900Z,4
2024-05-09T18:53:39.880Z,5
2024-05-09T18:56:09.626Z,16
2024-05-09T18:58:39.690Z,11
2024-05-09T19:01:10.149Z,8
2024-05-09T19:03:41.019Z,16
2024-05-09T19:06:11.004Z,8
2024-05-09T19:08:40.991Z,5
2024-05-09T19:11:11.128Z,4
2024-05-09T19:13:41.219Z,16
2024-05-09T19:16:11.267Z,8
2024-05-09T19:18:41.549Z,8
2024-05-09T19:21:11.427Z,12
2024-05-09T19:23:46.782Z,12
2024-05-09T19:26:11.486Z,4
2024-05-09T19:28:41.770Z,4
2024-05-09T19:31:10.844Z,4
2024-05-09T19:33:40.708Z,4
2024-05-09T19:36:10.684Z,8
2024-05-09T19:38:41.079Z,4
2024-05-09T19:41:11.044Z,4
2024-05-09T19:43:41.505Z,4
2024-05-09T19:46:11.518Z,8
2024-05-09T19:48:41.933Z,7
2024-05-09T19:51:11.818Z,4
2024-05-09T19:53:41.925Z,8
2024-05-09T19:56:12.215Z,20
2024-05-09T19:58:42.554Z,8
2024-05-09T20:01:12.846Z,12
2024-05-09T20:03:43.212Z,8
2024-05-09T20:06:13.306Z,8
2024-05-09T20:08:43.657Z,8
2024-05-09T20:11:13.973Z,8
2024-05-09T20:13:44.504Z,4
2024-05-09T20:16:14.781Z,4
2024-05-09T20:18:45.328Z,6
2024-05-09T20:21:15.384Z,12
2024-05-09T20:23:45.268Z,8
2024-05-09T20:26:16.153Z,8
2024-05-09T20:28:46.297Z,4
2024-05-09T20:31:17.088Z,4
2024-05-09T20:33:47.778Z,8
2024-05-09T20:36:17.916Z,4
2024-05-09T20:38:48.315Z,4
2024-05-09T20:41:18.636Z,4
2024-05-09T20:43:48.638Z,4
2024-05-09T20:46:18.814Z,4
2024-05-09T20:48:49.120Z,4
2024-05-09T20:51:19.218Z,4
2024-05-09T20:53:49.291Z,4
2024-05-09T20:56:19.556Z,5
2024-05-09T20:58:49.922Z,4
2024-05-09T21:01:20.222Z,16
2024-05-09T21:03:50.715Z,4
2024-05-09T21:06:20.603Z,4
2024-05-09T21:08:51.026Z,7
2024-05-09T21:11:21.276Z,4
2024-05-09T21:13:51.240Z,4
2024-05-09T21:16:21.311Z,4
2024-05-09T21:18:51.244Z,4
2024-05-09T21:21:23.600Z,4
2024-05-09T21:23:53.876Z,4
2024-05-09T21:26:24.307Z,4
2024-05-09T21:28:54.394Z,4
2024-05-09T21:31:24.311Z,8
2024-05-09T21:33:54.710Z,4
2024-05-09T21:36:24.351Z,4
2024-05-09T21:38:54.738Z,4
2024-05-09T21:41:24.799Z,4
2024-05-09T21:43:55.141Z,5
2024-05-09T21:46:25.869Z,8
2024-05-09T21:48:56.402Z,4
2024-05-09T21:51:26.274Z,4
2024-05-09T21:53:56.538Z,4
2024-05-09T21:56:26.712Z,4
2024-05-09T21:58:56.786Z,4
2024-05-09T22:01:27.154Z,2
2024-05-09T22:03:58.068Z,4
2024-05-09T22:06:28.017Z,4
2024-05-09T22:08:58.652Z,4
2024-05-09T22:11:28.959Z,4
2024-05-09T22:13:59.930Z,4
2024-05-09T22:16:30.437Z,4
2024-05-09T22:19:00.618Z,3
2024-05-09T22:21:31.071Z,4
2024-05-09T22:24:01.185Z,4
2024-05-09T22:26:31.678Z,4
2024-05-09T22:29:02.312Z,8
2024-05-09T22:31:32.561Z,6
2024-05-09T22:34:03.008Z,4
2024-05-09T22:36:33.278Z,4
2024-05-09T22:39:03.648Z,4
2024-05-09T22:41:33.919Z,4
2024-05-09T22:44:04.356Z,4
2024-05-09T22:46:34.474Z,4
2024-05-09T22:49:05.257Z,4
2024-05-09T22:51:35.760Z,4
2024-05-09T22:54:06.211Z,8
2024-05-09T22:56:36.549Z,4
2024-05-09T22:59:05.506Z,4
2024-05-09T23:01:35.855Z,4
2024-05-09T23:04:06.395Z,4
2024-05-09T23:06:36.742Z,4
2024-05-09T23:09:08.999Z,4
2024-05-09T23:11:37.200Z,4
2024-05-09T23:14:06.152Z,4
2024-05-09T23:16:36.419Z,4
2024-05-09T23:19:06.853Z,4
2024-05-09T23:21:37.403Z,0
2024-05-09T23:24:07.957Z,4
2024-05-09T23:26:38.273Z,4
2024-05-09T23:29:08.330Z,4
2024-05-09T23:31:41.246Z,0
2024-05-09T23:34:11.652Z,4
2024-05-09T23:36:41.694Z,4
2024-05-09T23:39:12.382Z,3
2024-05-09T23:41:42.828Z,4
2024-05-09T23:44:13.127Z,4
2024-05-09T23:46:44.063Z,4
2024-05-09T23:49:14.699Z,4
2024-05-09T23:51:45.022Z,4
2024-05-09T23:54:15.072Z,4
2024-05-09T23:56:45.659Z,4
2024-05-09T23:59:16.046Z,4
